createdAt,value
2023-12-12T00:00:52.654Z,34.60
2023-12-12T00:03:39.685Z,36.40
2023-12-12T00:06:08.700Z,34.30
2023-12-12T00:08:36.812Z,33.40
2023-12-12T00:11:06.126Z,35.20
2023-12-12T00:13:34.615Z,34.30
2023-12-12T00:16:02.751Z,37.40
2023-12-12T00:18:34.041Z,31.70
2023-12-12T00:21:04.021Z,33.50
2023-12-12T00:23:32.357Z,33.30
2023-12-12T00:26:00.532Z,32.70
2023-12-12T00:28:28.818Z,36.70
2023-12-12T00:30:57.278Z,32.30
2023-12-12T00:33:25.443Z,32.70
2023-12-12T00:35:53.829Z,37.10
2023-12-12T00:38:29.591Z,37.20
2023-12-12T00:40:58.029Z,37.00
2023-12-12T00:43:26.330Z,38.50
2023-12-12T00:45:54.671Z,34.00
2023-12-12T00:48:23.759Z,32.90
2023-12-12T00:50:52.438Z,38.70
2023-12-12T00:53:21.317Z,36.70
2023-12-12T00:55:49.610Z,36.40
2023-12-12T00:58:17.739Z,37.30
2023-12-12T01:00:45.860Z,35.50
2023-12-12T01:03:14.094Z,37.00
2023-12-12T01:05:42.341Z,34.70
2023-12-12T01:08:10.766Z,40.20
2023-12-12T01:10:38.863Z,35.60
2023-12-12T01:13:07.008Z,36.00
2023-12-12T01:15:35.232Z,34.10
2023-12-12T01:18:03.488Z,34.00
2023-12-12T01:20:31.763Z,35.40
2023-12-12T01:22:59.814Z,33.30
2023-12-12T01:25:28.966Z,35.70
2023-12-12T01:27:57.222Z,37.70
2023-12-12T01:30:25.352Z,33.30
2023-12-12T01:32:53.525Z,32.20
2023-12-12T01:35:21.644Z,36.60
2023-12-12T01:37:49.872Z,35.50
2023-12-12T01:40:18.036Z,33.60
2023-12-12T01:42:46.201Z,34.10
2023-12-12T01:45:15.976Z,33.70
2023-12-12T01:47:45.466Z,32.70
2023-12-12T01:50:13.590Z,36.40
2023-12-12T01:52:41.777Z,33.80
2023-12-12T01:55:12.498Z,31.50
2023-12-12T01:57:41.418Z,32.20
2023-12-12T02:00:10.632Z,33.40
2023-12-12T02:02:40.385Z,29.80
2023-12-12T02:05:08.931Z,32.90
2023-12-12T02:07:37.777Z,32.80
2023-12-12T02:10:06.151Z,38.00
2023-12-12T02:12:34.282Z,33.50
2023-12-12T02:15:02.464Z,38.70
2023-12-12T02:17:30.980Z,38.20
2023-12-12T02:19:59.575Z,41.80
2023-12-12T02:22:27.962Z,42.00
2023-12-12T02:24:56.251Z,53.30
2023-12-12T02:27:24.414Z,42.00
2023-12-12T02:29:52.621Z,45.70
2023-12-12T02:32:20.825Z,44.60
2023-12-12T02:34:49.484Z,45.60
2023-12-12T02:37:18.071Z,49.20
2023-12-12T02:39:46.190Z,44.40
2023-12-12T02:42:14.394Z,38.70
2023-12-12T02:44:42.502Z,40.70
2023-12-12T02:47:10.629Z,42.90
2023-12-12T02:49:38.892Z,40.60
2023-12-12T02:52:07.209Z,42.90
2023-12-12T02:54:35.432Z,42.00
2023-12-12T02:57:03.561Z,37.20
2023-12-12T02:59:31.822Z,41.80
2023-12-12T03:01:59.946Z,44.50
2023-12-12T03:04:30.234Z,39.70
2023-12-12T03:06:59.101Z,40.90
2023-12-12T03:09:27.171Z,44.70
2023-12-12T03:11:57.080Z,48.40
2023-12-12T03:14:28.322Z,40.50
2023-12-12T03:16:56.913Z,38.80
2023-12-12T03:19:25.750Z,39.80
2023-12-12T03:21:55.333Z,42.00
2023-12-12T03:24:23.448Z,40.00
2023-12-12T03:26:51.643Z,39.00
2023-12-12T03:29:19.847Z,36.50
2023-12-12T03:31:48.022Z,41.20
2023-12-12T03:34:16.236Z,37.90
2023-12-12T03:36:44.795Z,33.40
2023-12-12T03:39:13.029Z,34.50
2023-12-12T03:41:41.222Z,30.20
2023-12-12T03:44:09.383Z,29.60
2023-12-12T03:46:37.568Z,25.80
2023-12-12T03:49:06.405Z,31.30
2023-12-12T03:51:34.748Z,29.60
2023-12-12T03:54:02.845Z,25.60
2023-12-12T03:56:31.001Z,27.30
2023-12-12T03:59:02.199Z,27.20
2023-12-12T04:01:30.424Z,29.20
2023-12-12T04:03:59.212Z,30.60
2023-12-12T04:06:27.428Z,29.30
2023-12-12T04:08:55.652Z,27.80
2023-12-12T04:11:23.696Z,26.60
2023-12-12T04:13:52.472Z,28.70
2023-12-12T04:16:20.702Z,23.40
2023-12-12T04:18:50.169Z,24.40
2023-12-12T04:21:18.403Z,27.10
2023-12-12T04:23:46.524Z,23.40
2023-12-12T04:26:14.635Z,23.70
2023-12-12T04:28:42.804Z,26.90
2023-12-12T04:31:14.918Z,23.10
2023-12-12T04:33:43.204Z,24.90
2023-12-12T04:36:14.537Z,23.70
2023-12-12T04:38:43.075Z,27.40
2023-12-12T04:41:11.221Z,23.40
2023-12-12T04:43:39.402Z,26.30
2023-12-12T04:46:07.701Z,27.20
2023-12-12T04:48:37.036Z,33.80
2023-12-12T04:51:05.570Z,34.50
2023-12-12T04:53:33.747Z,32.00
2023-12-12T04:56:01.848Z,28.80
2023-12-12T04:58:30.849Z,33.90
2023-12-12T05:00:59.182Z,34.90
2023-12-12T05:03:27.475Z,37.30
2023-12-12T05:05:55.604Z,34.90
2023-12-12T05:08:23.760Z,43.50
2023-12-12T05:10:51.927Z,43.60
2023-12-12T05:13:20.210Z,41.20
2023-12-12T05:15:48.593Z,42.80
2023-12-12T05:18:17.872Z,48.40
2023-12-12T05:20:46.155Z,34.70
2023-12-12T05:23:14.286Z,42.90
2023-12-12T05:25:42.775Z,39.60
2023-12-12T05:28:11.432Z,36.60
2023-12-12T05:30:40.982Z,35.50
2023-12-12T05:33:09.598Z,40.60
2023-12-12T05:35:37.813Z,45.00
2023-12-12T05:38:08.128Z,39.30
2023-12-12T05:40:37.022Z,37.40
2023-12-12T05:43:05.360Z,38.60
2023-12-12T05:45:34.142Z,37.30
2023-12-12T05:48:04.844Z,41.50
2023-12-12T05:50:34.140Z,38.00
2023-12-12T05:53:02.407Z,40.50
2023-12-12T05:55:31.194Z,43.10
2023-12-12T05:57:59.568Z,35.30
2023-12-12T06:00:30.892Z,40.70
2023-12-12T06:02:59.363Z,37.60
2023-12-12T06:05:27.990Z,37.70
2023-12-12T06:07:56.230Z,33.40
2023-12-12T06:10:25.485Z,42.50
2023-12-12T06:12:54.869Z,40.60
2023-12-12T06:15:22.967Z,38.40
2023-12-12T06:17:51.168Z,39.90
2023-12-12T06:20:19.405Z,39.00
2023-12-12T06:22:47.611Z,36.90
2023-12-12T06:25:15.734Z,42.10
2023-12-12T06:27:43.899Z,35.10
2023-12-12T06:30:12.729Z,44.40
2023-12-12T06:32:41.435Z,39.20
2023-12-12T06:35:09.752Z,40.60
2023-12-12T06:37:40.511Z,38.80
2023-12-12T06:40:13.289Z,37.50
2023-12-12T06:42:43.557Z,37.60
2023-12-12T06:45:11.831Z,37.20
2023-12-12T06:47:40.146Z,38.10
2023-12-12T06:50:09.163Z,35.60
2023-12-12T06:52:38.608Z,34.20
2023-12-12T06:55:07.095Z,31.70
2023-12-12T06:57:40.142Z,32.30
2023-12-12T07:00:09.125Z,39.20
2023-12-12T07:02:38.004Z,62.40
2023-12-12T07:05:06.298Z,47.80
2023-12-12T07:07:34.856Z,36.80
2023-12-12T07:10:07.774Z,44.70
2023-12-12T07:12:37.600Z,36.70
2023-12-12T07:15:06.047Z,38.60
2023-12-12T07:17:34.620Z,36.30
2023-12-12T07:20:03.642Z,41.10
2023-12-12T07:22:32.379Z,39.10
2023-12-12T07:25:01.423Z,37.60
2023-12-12T07:27:30.865Z,41.50
2023-12-12T07:30:00.654Z,39.90
2023-12-12T07:32:28.826Z,34.00
2023-12-12T07:34:57.187Z,34.10
2023-12-12T07:37:25.573Z,30.50
2023-12-12T07:39:53.737Z,35.70
2023-12-12T07:42:21.864Z,36.70
2023-12-12T07:44:50.765Z,36.00
2023-12-12T07:47:20.957Z,35.80
2023-12-12T07:49:51.759Z,31.20
2023-12-12T07:52:20.034Z,35.50
2023-12-12T07:54:48.156Z,28.80
2023-12-12T07:57:16.949Z,30.00
2023-12-12T07:59:46.185Z,28.00
2023-12-12T08:02:14.316Z,30.90
2023-12-12T08:04:42.600Z,27.50
2023-12-12T08:07:10.833Z,26.60
2023-12-12T08:09:38.929Z,23.00
2023-12-12T08:12:07.323Z,30.50
2023-12-12T08:14:35.417Z,28.30
2023-12-12T08:17:04.055Z,27.20
2023-12-12T08:19:32.466Z,23.70
2023-12-12T08:22:00.676Z,24.90
2023-12-12T08:24:29.002Z,22.60
2023-12-12T08:26:57.140Z,25.70
2023-12-12T08:29:25.250Z,26.70
2023-12-12T08:31:53.878Z,28.50
2023-12-12T08:34:22.078Z,35.40
2023-12-12T08:36:51.464Z,57.50
2023-12-12T08:39:19.637Z,39.80
2023-12-12T08:41:47.701Z,30.40
2023-12-12T08:44:15.761Z,24.20
2023-12-12T08:46:45.457Z,28.10
2023-12-12T08:49:14.207Z,24.70
2023-12-12T08:51:45.867Z,25.30
2023-12-12T08:54:14.767Z,23.80
2023-12-12T08:56:46.769Z,26.90
2023-12-12T08:59:19.797Z,26.70
2023-12-12T09:01:48.606Z,46.00
2023-12-12T09:04:18.662Z,29.30
2023-12-12T09:06:47.506Z,33.40
2023-12-12T09:09:16.068Z,40.00
2023-12-12T09:11:46.877Z,76.00
2023-12-12T09:14:17.279Z,28.90
2023-12-12T09:16:46.147Z,30.80
2023-12-12T09:19:17.353Z,25.50
2023-12-12T09:21:45.968Z,28.50
2023-12-12T09:24:14.524Z,52.10
2023-12-12T09:26:42.794Z,32.50
2023-12-12T09:29:13.908Z,46.20
2023-12-12T09:31:42.708Z,46.60
2023-12-12T09:34:11.292Z,42.80
2023-12-12T09:36:39.743Z,42.80
2023-12-12T09:39:08.762Z,60.50
2023-12-12T09:41:37.151Z,48.50
2023-12-12T09:44:05.585Z,30.80
2023-12-12T09:46:35.543Z,41.70
2023-12-12T09:49:07.761Z,54.90
2023-12-12T09:51:36.491Z,35.00
2023-12-12T09:54:08.583Z,50.00
2023-12-12T09:56:38.360Z,66.70
2023-12-12T09:59:09.685Z,43.60
2023-12-12T10:01:38.151Z,39.20
2023-12-12T10:04:08.101Z,54.60
2023-12-12T10:06:37.094Z,57.10
2023-12-12T10:09:05.369Z,61.30
2023-12-12T10:11:33.983Z,51.50
2023-12-12T10:14:02.781Z,37.90
2023-12-12T10:16:33.953Z,29.60
2023-12-12T10:19:03.391Z,31.60
2023-12-12T10:21:31.968Z,30.80
2023-12-12T10:24:00.380Z,29.00
2023-12-12T10:26:31.356Z,30.30
2023-12-12T10:29:01.196Z,35.10
2023-12-12T10:31:29.638Z,29.30
2023-12-12T10:33:59.091Z,41.80
2023-12-12T10:36:28.949Z,31.30
2023-12-12T10:39:12.041Z,31.80
2023-12-12T10:41:42.712Z,26.70
2023-12-12T10:44:11.147Z,37.00
2023-12-12T10:46:41.693Z,35.20
2023-12-12T10:49:12.359Z,28.20
2023-12-12T10:51:41.060Z,36.00
2023-12-12T10:54:09.301Z,29.50
2023-12-12T10:56:39.344Z,28.80
2023-12-12T10:59:55.782Z,25.10
2023-12-12T11:01:56.509Z,29.30
2023-12-12T11:04:25.667Z,26.20
2023-12-12T11:06:54.716Z,22.90
2023-12-12T11:09:22.980Z,23.80
2023-12-12T11:11:52.583Z,24.20
2023-12-12T11:14:22.473Z,27.10
2023-12-12T11:16:52.153Z,26.20
2023-12-12T11:19:20.893Z,24.50
2023-12-12T11:21:50.285Z,27.00
2023-12-12T11:24:19.314Z,30.00
2023-12-12T11:26:51.853Z,25.60
2023-12-12T11:29:25.035Z,30.70
2023-12-12T11:32:03.568Z,24.20
2023-12-12T11:34:41.222Z,28.10
2023-12-12T11:37:10.476Z,32.00
2023-12-12T11:39:56.186Z,29.20
2023-12-12T11:42:27.784Z,33.90
2023-12-12T11:44:56.947Z,48.90
2023-12-12T11:47:26.036Z,35.20
2023-12-12T11:50:13.280Z,41.00
2023-12-12T11:52:41.461Z,30.90
2023-12-12T11:55:18.502Z,34.00
2023-12-12T11:57:47.034Z,30.00
2023-12-12T12:00:15.873Z,24.80
2023-12-12T12:02:45.133Z,28.80
2023-12-12T12:05:13.977Z,28.50
2023-12-12T12:07:42.471Z,33.20
2023-12-12T12:10:10.907Z,25.50
2023-12-12T12:12:39.419Z,29.10
2023-12-12T12:15:10.084Z,39.70
2023-12-12T12:17:39.384Z,32.70
2023-12-12T12:20:08.849Z,34.50
2023-12-12T12:22:40.788Z,31.40
2023-12-12T12:25:09.550Z,28.70
2023-12-12T12:27:55.665Z,43.70
2023-12-12T12:30:25.292Z,50.80
2023-12-12T12:33:04.158Z,32.30
2023-12-12T12:35:32.990Z,52.30
2023-12-12T12:38:01.478Z,37.60
2023-12-12T12:40:34.928Z,42.80
2023-12-12T12:43:06.453Z,39.00
2023-12-12T12:45:35.104Z,38.60
2023-12-12T12:48:03.674Z,46.60
2023-12-12T12:50:32.217Z,43.00
2023-12-12T12:53:00.537Z,37.40
2023-12-12T12:55:28.844Z,44.20
2023-12-12T12:57:57.429Z,46.10
2023-12-12T13:00:27.722Z,48.00
2023-12-12T13:02:59.279Z,34.90
2023-12-12T13:05:29.588Z,29.40
2023-12-12T13:07:57.972Z,40.90
2023-12-12T13:10:39.074Z,34.20
2023-12-12T13:13:14.608Z,36.60
2023-12-12T13:15:42.856Z,37.10
2023-12-12T13:18:11.321Z,37.70
2023-12-12T13:20:41.538Z,35.10
2023-12-12T13:23:09.781Z,40.20
2023-12-12T13:25:38.715Z,34.90
2023-12-12T13:28:07.396Z,35.10
2023-12-12T13:30:36.241Z,40.40
2023-12-12T13:33:07.516Z,53.60
2023-12-12T13:35:37.830Z,33.80
2023-12-12T13:38:06.827Z,35.90
2023-12-12T13:40:35.459Z,36.80
2023-12-12T13:43:04.170Z,45.40
2023-12-12T13:45:33.483Z,50.50
2023-12-12T13:48:01.904Z,56.10
2023-12-12T13:50:32.571Z,31.50
2023-12-12T13:53:01.046Z,23.30
2023-12-12T13:55:29.717Z,19.50
2023-12-12T13:57:59.133Z,18.00
2023-12-12T14:00:28.761Z,17.90
2023-12-12T14:02:57.398Z,16.30
2023-12-12T14:05:28.970Z,23.40
2023-12-12T14:07:58.058Z,29.80
2023-12-12T14:10:26.972Z,19.50
2023-12-12T14:12:55.304Z,21.10
2023-12-12T14:15:24.720Z,14.40
2023-12-12T14:17:53.415Z,16.50
2023-12-12T14:20:22.232Z,15.50
2023-12-12T14:25:22.314Z,27.60
2023-12-12T14:27:50.511Z,22.00
2023-12-12T14:30:20.316Z,22.30
2023-12-12T14:32:48.776Z,23.40
2023-12-12T14:35:19.092Z,17.60
2023-12-12T14:37:47.269Z,18.00
2023-12-12T14:40:15.577Z,16.40
2023-12-12T14:42:46.402Z,15.20
2023-12-12T14:45:17.387Z,13.80
2023-12-12T14:47:48.845Z,18.10
2023-12-12T14:50:17.378Z,17.00
2023-12-12T14:52:46.103Z,19.10
2023-12-12T14:55:16.121Z,17.30
2023-12-12T14:57:44.922Z,33.30
2023-12-12T15:00:23.735Z,31.00
2023-12-12T15:02:57.629Z,36.30
2023-12-12T15:05:26.328Z,42.80
2023-12-12T15:07:55.337Z,43.40
2023-12-12T15:10:23.813Z,44.10
2023-12-12T15:12:52.596Z,49.20
2023-12-12T15:15:21.152Z,53.80
2023-12-12T15:17:52.811Z,37.40
2023-12-12T15:20:27.897Z,40.50
2023-12-12T15:22:58.313Z,40.60
2023-12-12T15:25:32.157Z,34.60
2023-12-12T15:28:24.263Z,48.90
2023-12-12T15:30:57.763Z,36.50
2023-12-12T15:33:27.533Z,30.50
2023-12-12T15:35:57.482Z,31.50
2023-12-12T15:38:27.046Z,45.30
2023-12-12T15:40:55.285Z,29.50
2023-12-12T15:43:23.651Z,34.50
2023-12-12T15:45:53.444Z,33.50
2023-12-12T15:48:22.371Z,37.50
2023-12-12T15:50:50.895Z,32.10
2023-12-12T15:53:19.146Z,36.10
2023-12-12T15:55:47.392Z,32.70
2023-12-12T15:58:15.797Z,57.30
2023-12-12T16:00:44.670Z,28.40
2023-12-12T16:03:13.925Z,31.40
2023-12-12T16:05:43.379Z,33.60
2023-12-12T16:08:13.825Z,35.20
2023-12-12T16:10:42.173Z,41.30
2023-12-12T16:13:10.598Z,35.30
2023-12-12T16:15:38.987Z,31.90
2023-12-12T16:18:07.787Z,30.00
2023-12-12T16:20:35.996Z,24.50
2023-12-12T16:23:04.449Z,22.30
2023-12-12T16:25:32.872Z,23.10
2023-12-12T16:28:02.770Z,24.60
2023-12-12T16:30:32.361Z,24.30
2023-12-12T16:33:05.129Z,31.50
2023-12-12T16:35:33.633Z,40.40
2023-12-12T16:38:01.956Z,32.90
2023-12-12T16:40:31.464Z,30.90
2023-12-12T16:43:01.652Z,37.60
2023-12-12T16:45:30.124Z,38.10
2023-12-12T16:47:58.544Z,30.90
2023-12-12T16:50:26.843Z,30.60
2023-12-12T16:52:55.404Z,31.30
2023-12-12T16:55:23.683Z,37.40
2023-12-12T16:57:52.164Z,40.40
2023-12-12T17:00:20.526Z,35.80
2023-12-12T17:02:49.101Z,33.50
2023-12-12T17:05:18.211Z,34.90
2023-12-12T17:07:46.972Z,32.20
2023-12-12T17:10:15.728Z,37.60
2023-12-12T17:12:44.676Z,32.40
2023-12-12T17:15:13.142Z,27.60
2023-12-12T17:17:41.406Z,26.30
2023-12-12T17:20:11.973Z,27.20
2023-12-12T17:22:40.425Z,29.70
2023-12-12T17:25:09.771Z,28.30
2023-12-12T17:27:38.237Z,32.20
2023-12-12T17:30:10.550Z,27.50
2023-12-12T17:32:39.152Z,26.70
2023-12-12T17:35:09.390Z,27.20
2023-12-12T17:37:41.797Z,28.00
2023-12-12T17:40:11.163Z,32.30
2023-12-12T17:42:40.689Z,33.00
2023-12-12T17:45:09.615Z,29.50
2023-12-12T17:47:41.496Z,30.30
2023-12-12T17:50:10.133Z,36.60
2023-12-12T17:52:38.623Z,31.40
2023-12-12T17:55:07.335Z,36.50
2023-12-12T17:57:35.887Z,29.00
2023-12-12T18:00:04.789Z,32.00
2023-12-12T18:02:41.738Z,37.70
2023-12-12T18:05:12.124Z,35.20
2023-12-12T18:07:41.904Z,35.10
2023-12-12T18:10:11.880Z,30.40
2023-12-12T18:12:41.776Z,29.80
2023-12-12T18:15:10.692Z,28.80
2023-12-12T18:17:39.867Z,32.70
2023-12-12T18:20:10.050Z,32.20
2023-12-12T18:22:39.714Z,36.10
2023-12-12T18:25:09.079Z,37.50
2023-12-12T18:27:38.830Z,36.40
2023-12-12T18:30:10.748Z,42.60
2023-12-12T18:32:39.597Z,40.20
2023-12-12T18:35:08.796Z,40.70
2023-12-12T18:37:38.941Z,40.60
2023-12-12T18:40:09.154Z,37.70
2023-12-12T18:42:37.849Z,34.90
2023-12-12T18:45:06.493Z,32.60
2023-12-12T18:47:35.177Z,36.00
2023-12-12T18:50:08.125Z,36.20
2023-12-12T18:52:36.557Z,36.40
2023-12-12T18:55:05.956Z,37.40
2023-12-12T18:57:34.666Z,37.50
2023-12-12T19:00:11.230Z,38.40
2023-12-12T19:02:43.239Z,38.70
2023-12-12T19:05:12.944Z,40.80
2023-12-12T19:07:44.544Z,39.50
2023-12-12T19:10:13.364Z,37.70
2023-12-12T19:12:47.833Z,46.20
2023-12-12T19:15:22.153Z,40.00
2023-12-12T19:17:50.482Z,43.00
2023-12-12T19:20:19.698Z,33.80
2023-12-12T19:22:49.035Z,37.70
2023-12-12T19:25:17.801Z,39.00
2023-12-12T19:27:46.673Z,45.10
2023-12-12T19:30:16.715Z,36.10
2023-12-12T19:32:44.918Z,40.00
2023-12-12T19:35:14.815Z,39.30
2023-12-12T19:37:45.692Z,40.80
2023-12-12T19:40:14.195Z,45.00
2023-12-12T19:42:43.923Z,42.70
2023-12-12T19:45:12.758Z,37.50
2023-12-12T19:47:41.048Z,40.90
2023-12-12T19:50:09.807Z,47.90
2023-12-12T19:52:38.369Z,42.70
2023-12-12T19:55:07.344Z,41.80
2023-12-12T19:57:35.872Z,42.10
2023-12-12T20:00:06.464Z,48.10
2023-12-12T20:02:39.946Z,33.40
2023-12-12T20:05:08.985Z,41.40
2023-12-12T20:07:37.573Z,39.50
2023-12-12T20:10:06.494Z,40.10
2023-12-12T20:12:34.732Z,38.00
2023-12-12T20:15:04.423Z,48.60
2023-12-12T20:17:33.301Z,45.10
2023-12-12T20:20:02.556Z,49.40
2023-12-12T20:22:31.867Z,41.90
2023-12-12T20:24:59.987Z,45.30
2023-12-12T20:27:31.687Z,42.30
2023-12-12T20:30:00.000Z,40.60
2023-12-12T20:32:28.520Z,46.50
2023-12-12T20:34:57.280Z,45.80
2023-12-12T20:37:25.454Z,42.00
2023-12-12T20:39:53.832Z,50.90
2023-12-12T20:42:22.744Z,43.50
2023-12-12T20:44:54.975Z,42.20
2023-12-12T20:47:24.258Z,43.30
2023-12-12T20:49:52.647Z,47.90
2023-12-12T20:52:21.140Z,45.40
2023-12-12T20:54:52.153Z,49.60
2023-12-12T20:57:23.316Z,44.10
2023-12-12T20:59:51.561Z,50.80
2023-12-12T21:02:21.195Z,51.70
2023-12-12T21:04:50.699Z,49.90
2023-12-12T21:07:20.680Z,40.60
2023-12-12T21:09:49.077Z,48.20
2023-12-12T21:12:17.401Z,49.20
2023-12-12T21:14:46.297Z,35.00
2023-12-12T21:17:14.546Z,53.90
2023-12-12T21:19:43.825Z,54.60
2023-12-12T21:22:12.042Z,43.10
2023-12-12T21:24:40.408Z,50.20
2023-12-12T21:27:08.963Z,52.80
2023-12-12T21:29:37.227Z,53.90
2023-12-12T21:32:05.567Z,46.10
2023-12-12T21:34:33.727Z,50.00
2023-12-12T21:37:01.967Z,50.30
2023-12-12T21:39:30.095Z,49.50
2023-12-12T21:41:58.519Z,49.80
2023-12-12T21:44:26.884Z,47.30
2023-12-12T21:46:55.675Z,49.90
2023-12-12T21:49:23.994Z,48.20
2023-12-12T21:51:52.489Z,47.40
2023-12-12T21:54:20.585Z,43.10
2023-12-12T21:56:48.738Z,49.90
2023-12-12T21:59:16.944Z,51.30
2023-12-12T22:01:49.623Z,45.30
2023-12-12T22:04:19.338Z,56.30
2023-12-12T22:06:48.531Z,55.70
2023-12-12T22:09:20.156Z,55.00
2023-12-12T22:11:48.343Z,56.40
2023-12-12T22:14:16.839Z,52.60
2023-12-12T22:16:44.939Z,54.90
2023-12-12T22:19:13.152Z,50.50
2023-12-12T22:21:41.318Z,52.70
2023-12-12T22:24:09.430Z,54.80
2023-12-12T22:26:38.787Z,54.30
2023-12-12T22:29:07.936Z,55.80
2023-12-12T22:31:39.797Z,53.30
2023-12-12T22:34:08.027Z,47.00
2023-12-12T22:36:36.332Z,60.00
2023-12-12T22:39:12.061Z,54.10
2023-12-12T22:41:44.829Z,55.80
2023-12-12T22:44:13.790Z,56.90
2023-12-12T22:46:42.037Z,50.70
2023-12-12T22:49:10.293Z,54.60
2023-12-12T22:51:39.126Z,53.20
2023-12-12T22:54:08.216Z,50.60
2023-12-12T22:56:36.342Z,54.50
2023-12-12T22:59:04.467Z,54.20
2023-12-12T23:01:33.105Z,55.60
2023-12-12T23:04:01.887Z,50.90
2023-12-12T23:06:30.483Z,57.30
2023-12-12T23:08:58.845Z,51.00
2023-12-12T23:11:26.963Z,55.00
2023-12-12T23:13:55.959Z,51.80
2023-12-12T23:16:24.299Z,44.40
2023-12-12T23:18:52.487Z,57.70
2023-12-12T23:21:22.049Z,53.00
2023-12-12T23:23:50.553Z,54.20
2023-12-12T23:26:18.771Z,52.50
2023-12-12T23:28:47.349Z,51.80
2023-12-12T23:31:15.686Z,57.40
2023-12-12T23:33:44.301Z,55.20
2023-12-12T23:36:12.794Z,47.50
2023-12-12T23:38:40.937Z,51.50
2023-12-12T23:41:09.012Z,50.40
2023-12-12T23:43:37.367Z,54.20
2023-12-12T23:46:05.724Z,51.50
2023-12-12T23:48:34.000Z,49.70
2023-12-12T23:51:02.485Z,50.20
2023-12-12T23:53:34.605Z,52.90
2023-12-12T23:56:03.080Z,53.80
2023-12-12T23:58:31.411Z,51.60
